Time;durP1;ratioP1;P1;durP2;ratioP2;P2;SDS_P1;SDS_P2;PMS_P1;PMS_P2;Temp;Humidity;BMP_temperature;BMP_pressure;BME280_temperature;BME280_humidity;BME280_pressure;Samples;Min_cycle;Max_cycle;Signal;HPM_P1;HPM_P2
2024/01/21 00:00:20;;;;;;;8.73;7.50;;;-2.50;99.90;;;;;;5041341;28;20482;-67
2024/01/21 00:02:47;;;;;;;8.40;7.13;;;-2.40;99.90;;;;;;5052276;28;20411;-69
2024/01/21 00:05:15;;;;;;;9.03;7.70;;;-2.40;99.90;;;;;;5046142;28;20800;-66
2024/01/21 00:07:41;;;;;;;9.10;7.55;;;-2.40;99.90;;;;;;5044915;28;20413;-66
2024/01/21 00:10:09;;;;;;;9.57;8.20;;;-2.40;99.90;;;;;;5043149;28;20433;-66
2024/01/21 00:12:36;;;;;;;8.55;7.22;;;-2.40;99.90;;;;;;5041535;28;20436;-68
2024/01/21 00:15:03;;;;;;;9.60;7.88;;;-2.40;99.90;;;;;;5047914;28;20436;-68
2024/01/21 00:17:30;;;;;;;9.63;8.18;;;-2.40;99.90;;;;;;5041504;28;20517;-68
2024/01/21 00:19:57;;;;;;;10.65;7.75;;;-2.30;99.90;;;;;;5051108;28;20800;-68
2024/01/21 00:22:25;;;;;;;10.48;8.23;;;-2.30;99.90;;;;;;5033726;28;20489;-68
2024/01/21 00:24:52;;;;;;;10.32;8.70;;;-2.30;99.90;;;;;;5043045;28;20437;-67
2024/01/21 00:27:18;;;;;;;10.80;8.60;;;-2.30;99.90;;;;;;5042922;28;20433;-68
2024/01/21 00:29:46;;;;;;;11.30;9.05;;;-2.30;99.90;;;;;;5042394;28;20417;-70
2024/01/21 00:32:12;;;;;;;9.55;8.55;;;-2.30;99.90;;;;;;5047835;28;20433;-67
2024/01/21 00:34:39;;;;;;;11.35;9.60;;;-2.30;99.90;;;;;;5047961;28;20446;-68
2024/01/21 00:37:06;;;;;;;11.07;8.95;;;-2.20;99.90;;;;;;5045693;28;20437;-67
2024/01/21 00:39:34;;;;;;;10.55;9.32;;;-2.20;99.90;;;;;;5041628;28;20417;-68
2024/01/21 00:42:01;;;;;;;11.67;9.67;;;-2.20;99.90;;;;;;5045110;28;20432;-67
2024/01/21 00:44:27;;;;;;;10.75;9.63;;;-2.20;99.90;;;;;;5047926;28;20854;-68
2024/01/21 00:46:54;;;;;;;12.57;10.00;;;-2.20;99.90;;;;;;5051629;28;20421;-66
2024/01/21 00:49:21;;;;;;;12.93;10.50;;;-2.20;99.90;;;;;;5051163;28;20855;-66
2024/01/21 00:51:48;;;;;;;11.32;9.95;;;-2.10;99.90;;;;;;5047013;28;20436;-67
2024/01/21 00:54:14;;;;;;;12.00;9.93;;;-2.10;99.90;;;;;;5060366;28;20429;-67
2024/01/21 00:56:42;;;;;;;11.57;10.35;;;-2.10;99.90;;;;;;5067375;28;20971;-68
2024/01/21 00:59:09;;;;;;;11.88;10.68;;;-2.10;99.90;;;;;;5069791;28;20425;-67
2024/01/21 01:01:37;;;;;;;11.90;10.70;;;-2.10;99.90;;;;;;5054827;28;20429;-67
2024/01/21 01:04:05;;;;;;;13.00;10.90;;;-2.10;99.90;;;;;;5046296;28;20496;-67
2024/01/21 01:06:32;;;;;;;13.15;10.60;;;-2.10;99.90;;;;;;5049599;28;20416;-72
2024/01/21 01:08:58;;;;;;;12.05;10.40;;;-2.10;99.90;;;;;;5046580;28;20519;-67
2024/01/21 01:11:26;;;;;;;12.38;10.82;;;-2.00;99.90;;;;;;5043548;28;20563;-66
2024/01/21 01:13:54;;;;;;;13.60;10.85;;;-2.00;99.90;;;;;;5046821;28;20491;-67
2024/01/21 01:16:20;;;;;;;14.02;11.20;;;-2.00;99.90;;;;;;5047354;28;20440;-67
2024/01/21 01:18:47;;;;;;;12.50;10.68;;;-2.00;99.90;;;;;;5052793;28;20424;-66
2024/01/21 01:21:14;;;;;;;11.73;10.52;;;-2.00;99.90;;;;;;5047412;28;20440;-69
2024/01/21 01:23:41;;;;;;;13.20;11.27;;;-1.90;99.90;;;;;;5050469;28;20434;-66
2024/01/21 01:26:08;;;;;;;13.50;10.20;;;-1.90;99.90;;;;;;5044174;28;20933;-68
2024/01/21 01:28:34;;;;;;;13.93;11.10;;;-1.90;99.90;;;;;;5045786;28;21014;-68
2024/01/21 01:31:02;;;;;;;11.88;10.40;;;-1.90;99.90;;;;;;5042612;28;20433;-67
2024/01/21 01:33:29;;;;;;;14.32;11.57;;;-1.90;99.90;;;;;;5056054;28;20424;-66
2024/01/21 01:35:56;;;;;;;12.50;11.00;;;-1.90;99.90;;;;;;5049060;28;20652;-67
2024/01/21 01:38:23;;;;;;;12.10;10.73;;;-1.90;99.90;;;;;;5045529;28;20410;-69
2024/01/21 01:40:49;;;;;;;12.77;11.27;;;-1.80;99.90;;;;;;5042481;28;20815;-67
2024/01/21 01:43:16;;;;;;;12.30;11.00;;;-1.80;99.90;;;;;;5062634;28;20814;-65
2024/01/21 01:45:43;;;;;;;12.20;10.88;;;-1.80;99.90;;;;;;5053959;28;20436;-72
2024/01/21 01:48:11;;;;;;;12.73;10.95;;;-1.70;99.90;;;;;;5053545;28;20796;-66
2024/01/21 01:50:37;;;;;;;14.60;10.80;;;-1.70;99.90;;;;;;5058384;28;20796;-63
2024/01/21 01:53:05;;;;;;;12.85;10.95;;;-1.70;99.90;;;;;;5055978;28;20524;-66
2024/01/21 01:55:32;;;;;;;13.52;11.40;;;-1.70;99.90;;;;;;5056225;28;20540;-65
2024/01/21 01:57:59;;;;;;;13.40;10.70;;;-1.70;99.90;;;;;;5047264;28;20682;-62
2024/01/21 02:00:26;;;;;;;14.30;11.70;;;-1.60;99.90;;;;;;5046792;28;20442;-64
2024/01/21 02:02:54;;;;;;;12.15;10.38;;;-1.60;99.90;;;;;;5048890;28;20441;-64
2024/01/21 02:05:22;;;;;;;13.40;11.30;;;-1.60;99.90;;;;;;5049265;28;20878;-63
2024/01/21 02:07:49;;;;;;;12.63;10.90;;;-1.60;99.90;;;;;;5046958;28;20409;-64
2024/01/21 02:10:16;;;;;;;13.80;11.00;;;-1.60;99.90;;;;;;5043511;28;20433;-65
2024/01/21 02:12:44;;;;;;;13.70;11.50;;;-1.60;99.90;;;;;;5045960;28;20440;-64
2024/01/21 02:15:11;;;;;;;13.23;10.93;;;-1.60;99.90;;;;;;5057512;28;20440;-62
2024/01/21 02:17:38;;;;;;;13.30;11.90;;;-1.60;99.90;;;;;;5046822;28;20437;-64
2024/01/21 02:20:07;;;;;;;12.95;11.38;;;-1.50;99.90;;;;;;5066384;28;20433;-64
2024/01/21 02:22:37;;;;;;;13.83;11.63;;;-1.50;99.90;;;;;;5059859;28;20512;-64
2024/01/21 02:25:06;;;;;;;13.13;11.10;;;-1.50;99.90;;;;;;5044823;28;20500;-64
2024/01/21 02:27:33;;;;;;;12.50;10.30;;;-1.50;99.90;;;;;;5052222;28;20437;-64
2024/01/21 02:30:00;;;;;;;12.02;10.20;;;-1.50;99.90;;;;;;5042289;28;20528;-64
2024/01/21 02:32:27;;;;;;;11.63;10.30;;;-1.50;99.90;;;;;;5041396;28;20426;-65
2024/01/21 02:34:54;;;;;;;11.70;10.00;;;-1.50;99.90;;;;;;5049915;28;20484;-64
2024/01/21 02:37:20;;;;;;;12.80;10.55;;;-1.40;99.90;;;;;;5042850;28;20867;-64
2024/01/21 02:39:47;;;;;;;12.73;10.48;;;-1.40;99.90;;;;;;5057053;28;20443;-64
2024/01/21 02:42:15;;;;;;;12.00;10.13;;;-1.40;99.90;;;;;;5045144;28;20524;-64
2024/01/21 02:44:42;;;;;;;11.25;9.70;;;-1.40;99.90;;;;;;5061330;28;20499;-63
2024/01/21 02:47:09;;;;;;;11.73;9.43;;;-1.30;99.90;;;;;;5064058;28;20840;-63
2024/01/21 02:49:36;;;;;;;11.50;9.23;;;-1.40;99.90;;;;;;5071556;28;20441;-66
2024/01/21 02:52:03;;;;;;;11.60;9.67;;;-1.30;99.90;;;;;;5064015;28;20511;-62
2024/01/21 02:54:29;;;;;;;11.20;9.60;;;-1.40;99.90;;;;;;5065638;28;20649;-64
2024/01/21 02:56:56;;;;;;;11.02;9.93;;;-1.40;99.90;;;;;;5064733;28;20529;-63
2024/01/21 02:59:24;;;;;;;11.23;9.50;;;-1.40;99.90;;;;;;5063114;28;20437;-63
2024/01/21 03:01:51;;;;;;;10.55;9.45;;;-1.40;99.90;;;;;;5066176;28;20508;-63
2024/01/21 03:04:18;;;;;;;11.57;9.52;;;-1.30;99.90;;;;;;5064632;28;20431;-63
2024/01/21 03:06:44;;;;;;;12.30;9.00;;;-1.30;99.90;;;;;;5068264;28;20488;-63
2024/01/21 03:09:11;;;;;;;11.80;9.85;;;-1.30;99.90;;;;;;5065314;28;20409;-62
2024/01/21 03:11:38;;;;;;;11.70;9.80;;;-1.30;99.90;;;;;;5068342;28;20453;-62
2024/01/21 03:14:06;;;;;;;11.20;9.05;;;-1.30;99.90;;;;;;5053637;28;20516;-65
2024/01/21 03:16:34;;;;;;;10.80;9.30;;;-1.30;99.90;;;;;;5050621;28;20487;-65
2024/01/21 03:19:00;;;;;;;11.38;9.43;;;-1.30;99.90;;;;;;5057802;28;20962;-63
2024/01/21 03:21:27;;;;;;;11.00;9.63;;;-1.30;99.90;;;;;;5049142;28;20413;-65
2024/01/21 03:23:54;;;;;;;10.27;9.27;;;-1.30;99.90;;;;;;5054860;28;20431;-64
2024/01/21 03:26:21;;;;;;;10.60;9.32;;;-1.20;99.90;;;;;;5044817;28;20438;-65
2024/01/21 03:28:47;;;;;;;12.35;10.02;;;-1.20;99.90;;;;;;5052076;28;20426;-65
2024/01/21 03:31:14;;;;;;;10.32;8.95;;;-1.20;99.90;;;;;;5054432;28;20440;-64
2024/01/21 03:33:42;;;;;;;10.37;9.13;;;-1.20;99.90;;;;;;5051129;28;20497;-65
2024/01/21 03:36:11;;;;;;;11.27;9.32;;;-1.30;99.90;;;;;;5047344;28;20459;-65
2024/01/21 03:38:39;;;;;;;11.57;9.52;;;-1.30;99.90;;;;;;5049260;28;20867;-67
2024/01/21 03:41:06;;;;;;;11.35;9.70;;;-1.30;99.90;;;;;;5042627;28;20472;-65
2024/01/21 03:43:32;;;;;;;11.38;9.70;;;-1.30;99.90;;;;;;5044334;28;20447;-64
2024/01/21 03:45:59;;;;;;;12.10;9.70;;;-1.30;99.90;;;;;;5044220;28;20447;-64
2024/01/21 03:48:26;;;;;;;10.93;9.83;;;-1.40;99.90;;;;;;5048632;28;20515;-65
2024/01/21 03:50:54;;;;;;;11.63;9.25;;;-1.40;99.90;;;;;;5053191;28;20428;-63
2024/01/21 03:53:20;;;;;;;11.15;9.52;;;-1.40;99.90;;;;;;5056207;28;20433;-69
2024/01/21 03:55:47;;;;;;;10.88;9.75;;;-1.40;99.90;;;;;;5061684;28;20437;-65
2024/01/21 03:58:14;;;;;;;10.30;9.20;;;-1.40;99.90;;;;;;5048758;28;20452;-64
2024/01/21 04:00:40;;;;;;;11.20;9.68;;;-1.50;99.90;;;;;;5040473;28;20516;-64
2024/01/21 04:03:07;;;;;;;10.50;9.35;;;-1.50;99.90;;;;;;5042666;28;20412;-65
2024/01/21 04:05:34;;;;;;;11.40;9.27;;;-1.50;99.90;;;;;;5050941;28;20517;-64
2024/01/21 04:08:05;;;;;;;11.88;10.05;;;-1.50;99.90;;;;;;5046870;28;20444;-70
2024/01/21 04:10:32;;;;;;;10.70;8.90;;;-1.60;99.90;;;;;;5047723;28;20507;-65
2024/01/21 04:12:59;;;;;;;10.77;8.90;;;-1.60;99.90;;;;;;5044639;28;20440;-64
2024/01/21 04:15:26;;;;;;;11.15;8.70;;;-1.60;99.90;;;;;;5049905;28;20429;-64
2024/01/21 04:17:52;;;;;;;11.43;9.57;;;-1.60;99.90;;;;;;5043737;28;20452;-64
2024/01/21 04:20:19;;;;;;;11.80;9.00;;;-1.60;99.90;;;;;;5047114;28;20917;-64
2024/01/21 04:22:46;;;;;;;11.18;9.30;;;-1.60;99.90;;;;;;5048702;28;20429;-64
2024/01/21 04:25:14;;;;;;;11.13;8.90;;;-1.60;99.90;;;;;;5047206;28;20413;-65
2024/01/21 04:27:41;;;;;;;12.30;9.23;;;-1.60;99.90;;;;;;5051508;28;20426;-64
2024/01/21 04:30:09;;;;;;;11.00;8.55;;;-1.60;99.90;;;;;;5049625;28;20416;-64
2024/01/21 04:32:36;;;;;;;10.48;8.90;;;-1.70;99.90;;;;;;5049444;28;20480;-64
2024/01/21 04:35:03;;;;;;;10.82;8.50;;;-1.60;99.90;;;;;;5054620;28;20435;-64
2024/01/21 04:37:29;;;;;;;12.15;8.77;;;-1.60;99.90;;;;;;5052719;28;20799;-64
2024/01/21 04:39:56;;;;;;;10.52;9.43;;;-1.60;99.90;;;;;;5047139;28;20493;-64
2024/01/21 04:42:24;;;;;;;10.40;8.70;;;-1.50;99.90;;;;;;5044978;28;20433;-63
2024/01/21 04:44:51;;;;;;;11.35;8.70;;;-1.50;99.90;;;;;;5057444;28;20487;-69
2024/01/21 04:47:18;;;;;;;10.35;8.63;;;-1.50;99.90;;;;;;5055586;28;20484;-64
2024/01/21 04:49:45;;;;;;;10.13;8.38;;;-1.50;99.90;;;;;;5047562;28;20444;-70
2024/01/21 04:52:11;;;;;;;9.30;8.25;;;-1.50;99.90;;;;;;5046821;28;20425;-65
2024/01/21 04:54:38;;;;;;;10.30;8.43;;;-1.50;99.90;;;;;;5046127;28;20501;-63
2024/01/21 04:57:05;;;;;;;9.55;8.02;;;-1.40;99.90;;;;;;5040183;28;20433;-65
2024/01/21 04:59:33;;;;;;;9.18;8.18;;;-1.40;99.90;;;;;;5052402;28;20410;-65
2024/01/21 05:02:00;;;;;;;8.73;7.72;;;-1.40;99.90;;;;;;5052621;28;20903;-65
2024/01/21 05:04:27;;;;;;;10.70;8.10;;;-1.40;99.90;;;;;;5059961;28;20445;-64
2024/01/21 05:06:53;;;;;;;10.32;8.30;;;-1.40;99.90;;;;;;5056937;28;20513;-64
2024/01/21 05:09:20;;;;;;;10.57;7.93;;;-1.40;99.90;;;;;;5048979;28;20433;-64
2024/01/21 05:11:47;;;;;;;9.85;8.52;;;-1.40;99.90;;;;;;5050734;28;20555;-62
2024/01/21 05:14:14;;;;;;;8.88;7.75;;;-1.30;99.90;;;;;;5049916;28;20440;-66
2024/01/21 05:16:42;;;;;;;9.60;8.10;;;-1.30;99.90;;;;;;5049405;28;20425;-64
2024/01/21 05:19:09;;;;;;;10.18;8.05;;;-1.30;99.90;;;;;;5045838;28;20437;-65
2024/01/21 05:21:35;;;;;;;9.43;7.88;;;-1.30;99.90;;;;;;5053798;28;20426;-64
2024/01/21 05:24:01;;;;;;;10.05;8.10;;;-1.30;99.90;;;;;;5048552;28;20504;-64
2024/01/21 05:26:28;;;;;;;10.02;7.97;;;-1.30;99.90;;;;;;5046724;28;20508;-64
2024/01/21 05:28:55;;;;;;;9.38;7.38;;;-1.30;99.90;;;;;;5047543;28;20896;-64
2024/01/21 05:31:21;;;;;;;10.80;7.70;;;-1.30;99.90;;;;;;5055267;28;20514;-65
2024/01/21 05:33:50;;;;;;;9.18;8.05;;;-1.20;99.90;;;;;;5058192;28;20886;-65
2024/01/21 05:36:16;;;;;;;8.30;7.28;;;-1.20;99.90;;;;;;5050680;28;20440;-63
2024/01/21 05:38:43;;;;;;;8.95;7.60;;;-1.20;99.90;;;;;;5052230;28;20499;-65
2024/01/21 05:41:12;;;;;;;9.63;7.90;;;-1.20;99.90;;;;;;5057231;28;20949;-68
2024/01/21 05:43:39;;;;;;;9.85;7.63;;;-1.20;99.90;;;;;;5053048;28;20437;-65
2024/01/21 05:46:06;;;;;;;10.13;8.20;;;-1.20;99.90;;;;;;5041669;28;20432;-64
2024/01/21 05:48:33;;;;;;;9.40;8.10;;;-1.20;99.90;;;;;;5051634;28;20420;-64
2024/01/21 05:51:01;;;;;;;9.50;7.80;;;-1.20;99.90;;;;;;5045435;28;20491;-64
2024/01/21 05:53:27;;;;;;;11.23;7.93;;;-1.20;99.90;;;;;;5050636;28;20433;-65
2024/01/21 05:55:54;;;;;;;10.00;7.90;;;-1.20;99.90;;;;;;5044861;28;20444;-63
2024/01/21 05:58:21;;;;;;;10.93;8.30;;;-1.20;99.90;;;;;;5047671;28;20455;-65
2024/01/21 06:00:48;;;;;;;8.60;7.70;;;-1.20;99.90;;;;;;5054314;28;20749;-64
2024/01/21 06:03:14;;;;;;;9.80;7.60;;;-1.30;99.90;;;;;;5047329;28;20440;-65
2024/01/21 06:05:41;;;;;;;9.23;8.32;;;-1.30;99.90;;;;;;5051669;28;21159;-62
2024/01/21 06:08:10;;;;;;;9.40;7.85;;;-1.30;99.90;;;;;;5051075;28;20434;-65
2024/01/21 06:10:36;;;;;;;8.50;7.50;;;-1.30;99.90;;;;;;5051460;28;20455;-63
2024/01/21 06:16:25;;;;;;;8.77;7.22;;;-1.20;99.90;;;;;;5046369;28;20678;-64
2024/01/21 06:18:52;;;;;;;9.05;7.45;;;-1.20;99.90;;;;;;5044668;28;20437;-64
2024/01/21 06:24:42;;;;;;;9.60;8.00;;;-1.20;99.90;;;;;;5046978;28;20384;-65
2024/01/21 06:27:09;;;;;;;8.87;7.97;;;-1.20;99.90;;;;;;5045667;28;20948;-63
2024/01/21 06:29:36;;;;;;;9.23;7.60;;;-1.20;99.90;;;;;;5046201;28;20429;-64
2024/01/21 06:32:02;;;;;;;10.00;7.90;;;-1.20;99.90;;;;;;5047530;28;20433;-65
2024/01/21 06:34:29;;;;;;;8.18;6.70;;;-1.20;99.90;;;;;;5046098;28;20424;-65
2024/01/21 06:36:56;;;;;;;9.40;7.70;;;-1.20;99.90;;;;;;5048250;28;20461;-63
2024/01/21 06:39:23;;;;;;;9.80;8.20;;;-1.10;99.90;;;;;;5044144;28;20439;-65
2024/01/21 06:41:51;;;;;;;8.82;7.93;;;-1.20;99.90;;;;;;5045553;28;20444;-65
2024/01/21 06:44:18;;;;;;;8.85;7.80;;;-1.20;99.90;;;;;;5050567;28;21048;-64
2024/01/21 06:46:45;;;;;;;9.17;8.23;;;-1.10;99.90;;;;;;5041393;28;20414;-64
2024/01/21 06:49:11;;;;;;;9.52;7.80;;;-1.10;99.90;;;;;;5043090;28;20898;-64
2024/01/21 06:51:46;;;;;;;9.35;7.65;;;-1.10;99.90;;;;;;5045828;28;20414;-64
2024/01/21 06:54:13;;;;;;;9.40;6.93;;;-1.10;99.90;;;;;;5044481;28;20421;-63
2024/01/21 06:56:40;;;;;;;9.60;8.00;;;-1.10;99.90;;;;;;5044736;28;20480;-62
2024/01/21 06:59:08;;;;;;;8.57;7.40;;;-1.20;99.90;;;;;;5061459;28;20413;-62
2024/01/21 07:01:35;;;;;;;9.77;8.00;;;-1.20;99.90;;;;;;5074137;28;20427;-63
2024/01/21 07:04:01;;;;;;;9.70;7.65;;;-1.20;99.90;;;;;;5072301;28;20506;-62
2024/01/21 07:06:28;;;;;;;10.03;8.03;;;-1.10;99.90;;;;;;5066365;28;20424;-62
2024/01/21 07:08:55;;;;;;;9.30;7.60;;;-1.10;99.90;;;;;;5058585;28;20429;-64
2024/01/21 07:11:22;;;;;;;9.98;7.40;;;-1.10;99.90;;;;;;5051719;28;20443;-64
2024/01/21 07:13:49;;;;;;;8.50;7.60;;;-1.10;99.90;;;;;;5043522;28;20429;-65
2024/01/21 07:16:17;;;;;;;8.30;7.50;;;-1.10;99.90;;;;;;5051641;28;20903;-63
2024/01/21 07:18:44;;;;;;;8.60;7.70;;;-1.10;99.90;;;;;;5042541;28;20433;-63
2024/01/21 07:21:11;;;;;;;8.90;7.60;;;-1.00;99.90;;;;;;5045913;28;20433;-64
2024/01/21 07:23:39;;;;;;;7.90;7.10;;;-1.00;99.90;;;;;;5041295;28;20748;-70
2024/01/21 07:26:06;;;;;;;7.63;6.82;;;-1.00;99.90;;;;;;5041231;28;20799;-61
2024/01/21 07:28:32;;;;;;;8.48;7.40;;;-0.80;99.90;;;;;;5036401;28;20425;-64
2024/01/21 07:30:59;;;;;;;8.98;8.00;;;-0.70;99.90;;;;;;5061291;28;20435;-63
2024/01/21 07:33:27;;;;;;;8.38;7.50;;;-0.70;99.90;;;;;;5062911;28;20469;-62
2024/01/21 07:35:54;;;;;;;9.15;7.18;;;-0.70;99.90;;;;;;5071674;28;20416;-61
2024/01/21 07:38:20;;;;;;;9.40;7.67;;;-0.70;99.90;;;;;;5063123;28;20422;-62
2024/01/21 07:40:47;;;;;;;8.88;7.60;;;-0.70;99.90;;;;;;5055205;28;20496;-63
2024/01/21 07:43:14;;;;;;;9.00;7.68;;;-0.80;99.90;;;;;;5058498;28;20457;-64
2024/01/21 07:45:41;;;;;;;8.37;7.17;;;-0.80;99.90;;;;;;5070513;28;20477;-65
2024/01/21 07:48:11;;;;;;;8.90;7.90;;;-0.80;99.90;;;;;;5065707;28;20481;-62
2024/01/21 07:50:39;;;;;;;8.10;7.23;;;-0.70;99.90;;;;;;5064655;28;20448;-64
2024/01/21 07:53:06;;;;;;;10.00;8.00;;;-0.70;99.90;;;;;;5060297;28;20512;-62
2024/01/21 07:55:32;;;;;;;8.23;7.43;;;-0.70;99.90;;;;;;5061341;28;20819;-68
2024/01/21 07:58:01;;;;;;;9.35;8.10;;;-0.70;99.90;;;;;;5067645;28;20447;-67
2024/01/21 08:00:27;;;;;;;8.60;7.00;;;-0.70;99.90;;;;;;5066005;28;20674;-64
2024/01/21 08:02:54;;;;;;;7.97;7.18;;;-0.60;99.90;;;;;;5065584;28;20424;-68
2024/01/21 08:05:21;;;;;;;8.40;7.22;;;-0.60;99.90;;;;;;5064588;28;20421;-65
2024/01/21 08:07:49;;;;;;;7.85;7.05;;;-0.60;99.90;;;;;;5071814;28;20435;-67
2024/01/21 08:10:16;;;;;;;7.93;7.13;;;-0.50;99.90;;;;;;5058261;28;20516;-65
2024/01/21 08:12:43;;;;;;;8.52;6.85;;;-0.50;99.90;;;;;;5049380;28;20457;-69
2024/01/21 08:15:10;;;;;;;8.48;7.32;;;-0.50;99.90;;;;;;5047201;28;20923;-67
2024/01/21 08:17:37;;;;;;;8.00;7.20;;;-0.50;99.90;;;;;;5047792;28;20433;-66
2024/01/21 08:20:05;;;;;;;8.60;6.78;;;-0.50;99.90;;;;;;5048832;28;20433;-66
2024/01/21 08:22:32;;;;;;;8.85;7.30;;;-0.40;99.90;;;;;;5039485;28;20547;-66
2024/01/21 08:25:00;;;;;;;9.18;7.63;;;-0.40;99.90;;;;;;5048495;28;20440;-65
2024/01/21 08:27:27;;;;;;;9.20;7.57;;;-0.30;99.90;;;;;;5048067;28;20907;-66
2024/01/21 08:29:53;;;;;;;8.48;7.18;;;-0.30;99.90;;;;;;5047068;28;20424;-70
2024/01/21 08:35:42;;;;;;;8.45;7.45;;;-0.30;99.90;;;;;;5046636;28;20454;-66
2024/01/21 08:38:09;;;;;;;8.43;7.53;;;-0.20;99.90;;;;;;5046147;28;20424;-65
2024/01/21 08:40:38;;;;;;;9.13;7.15;;;-0.20;99.90;;;;;;5047196;28;20838;-67
2024/01/21 08:43:05;;;;;;;8.73;7.15;;;-0.20;99.90;;;;;;5048163;28;20425;-66
2024/01/21 08:45:32;;;;;;;7.75;6.95;;;-0.10;99.90;;;;;;5052599;28;20903;-66
2024/01/21 08:47:58;;;;;;;8.80;8.00;;;-0.10;99.90;;;;;;5046954;28;20433;-66
2024/01/21 08:50:25;;;;;;;10.90;7.70;;;-0.10;99.90;;;;;;5054505;28;20429;-66
2024/01/21 08:58:50;;;;;;;8.00;7.20;;;0.00;99.90;;;;;;5041915;28;20487;-63
2024/01/21 09:01:17;;;;;;;7.65;6.85;;;0.00;99.90;;;;;;5036755;28;20886;-63
2024/01/21 09:03:44;;;;;;;8.70;7.80;;;0.10;99.90;;;;;;5045774;28;20440;-64
2024/01/21 09:06:11;;;;;;;8.30;7.40;;;0.20;99.90;;;;;;5031209;28;20425;-65
2024/01/21 09:08:38;;;;;;;9.45;8.40;;;0.30;99.90;;;;;;5042674;28;20801;-64
2024/01/21 09:11:05;;;;;;;8.80;7.90;;;0.40;99.90;;;;;;5049931;28;20850;-64
2024/01/21 09:13:32;;;;;;;9.02;7.60;;;0.50;99.90;;;;;;5033454;28;20824;-63
2024/01/21 09:16:00;;;;;;;10.10;8.00;;;0.60;99.90;;;;;;5045471;28;20496;-65
2024/01/21 09:18:27;;;;;;;8.70;7.40;;;0.70;99.90;;;;;;5045922;28;20425;-63
2024/01/21 09:20:53;;;;;;;8.10;7.30;;;0.70;99.90;;;;;;5045293;28;20494;-63
2024/01/21 09:23:20;;;;;;;8.80;7.90;;;0.80;99.90;;;;;;5032108;28;20880;-62
2024/01/21 09:25:47;;;;;;;9.35;8.00;;;0.80;99.90;;;;;;5031670;28;20431;-63
2024/01/21 09:28:14;;;;;;;8.85;7.95;;;0.90;99.90;;;;;;5033666;28;20434;-63
2024/01/21 09:30:41;;;;;;;8.23;7.43;;;0.90;99.90;;;;;;5033300;28;20561;-65
2024/01/21 09:33:10;;;;;;;8.85;7.78;;;1.00;99.90;;;;;;5036323;28;20444;-64
2024/01/21 09:35:36;;;;;;;9.13;7.97;;;1.10;99.90;;;;;;5030616;28;20431;-64
2024/01/21 09:38:03;;;;;;;8.87;7.97;;;1.00;99.90;;;;;;5039890;28;20508;-64
2024/01/21 09:40:30;;;;;;;9.07;8.18;;;1.10;99.90;;;;;;5034300;28;20433;-63
2024/01/21 09:42:57;;;;;;;9.50;8.50;;;1.10;99.90;;;;;;5042986;28;20416;-64
2024/01/21 09:45:24;;;;;;;10.70;8.75;;;1.10;99.90;;;;;;5034858;28;20429;-64
2024/01/21 09:47:55;;;;;;;9.88;8.32;;;1.20;99.90;;;;;;5033531;28;20405;-62
2024/01/21 09:50:25;;;;;;;9.80;8.80;;;1.20;99.90;;;;;;5030805;28;20446;-64
2024/01/21 09:52:51;;;;;;;9.60;8.70;;;1.30;99.90;;;;;;5034671;28;20430;-64
2024/01/21 09:55:18;;;;;;;10.60;8.50;;;1.40;99.90;;;;;;5031529;28;20489;-64
2024/01/21 09:57:45;;;;;;;8.52;7.72;;;1.50;99.90;;;;;;5043360;28;20483;-64
2024/01/21 10:00:15;;;;;;;9.20;8.25;;;1.50;99.40;;;;;;5031535;28;21923;-64
2024/01/21 10:02:43;;;;;;;10.13;9.13;;;1.60;99.90;;;;;;5029356;28;20516;-64
2024/01/21 10:05:10;;;;;;;9.10;8.20;;;1.70;99.40;;;;;;5028576;28;20898;-63
2024/01/21 10:07:39;;;;;;;10.05;8.70;;;1.60;99.70;;;;;;5032003;28;20422;-64
2024/01/21 10:10:07;;;;;;;9.85;8.85;;;1.70;99.80;;;;;;5034407;28;20447;-64
2024/01/21 10:12:33;;;;;;;9.60;8.70;;;1.70;99.90;;;;;;5044484;28;20417;-64
2024/01/21 10:15:00;;;;;;;8.90;8.00;;;1.90;98.10;;;;;;5028509;28;20484;-63
2024/01/21 10:20:49;;;;;;;10.40;8.23;;;2.30;94.00;;;;;;5033480;28;20437;-64
2024/01/21 10:23:17;;;;;;;8.80;7.70;;;2.30;93.30;;;;;;5030951;28;20421;-63
2024/01/21 10:25:44;;;;;;;9.63;8.00;;;2.40;91.80;;;;;;5027919;28;20534;-64
2024/01/21 10:28:12;;;;;;;9.80;7.70;;;2.40;92.50;;;;;;5032439;28;20735;-63
2024/01/21 10:30:39;;;;;;;8.82;7.22;;;2.40;92.40;;;;;;5026093;28;20415;-64
2024/01/21 10:33:06;;;;;;;8.82;7.93;;;2.40;92.50;;;;;;5027682;28;20989;-63
2024/01/21 10:35:33;;;;;;;8.73;7.82;;;2.40;93.30;;;;;;5042820;28;20772;-63
2024/01/21 10:38:02;;;;;;;9.52;8.23;;;2.40;92.20;;;;;;5036596;28;20957;-63
2024/01/21 10:40:30;;;;;;;10.15;8.30;;;2.40;93.00;;;;;;5039649;28;20460;-63
2024/01/21 10:42:59;;;;;;;9.02;7.63;;;2.50;91.90;;;;;;5037356;28;20517;-63
2024/01/21 10:45:26;;;;;;;9.32;8.20;;;2.50;92.40;;;;;;5036682;28;20898;-69
2024/01/21 10:47:53;;;;;;;9.55;8.55;;;2.60;92.70;;;;;;5037782;28;20422;-63
2024/01/21 10:50:21;;;;;;;9.23;8.23;;;2.60;92.60;;;;;;5034817;28;20768;-63
2024/01/21 10:56:23;;;;;;;9.02;7.80;;;2.50;94.30;;;;;;5030403;28;20889;-63
2024/01/21 10:58:50;;;;;;;9.60;8.50;;;2.50;94.30;;;;;;5030229;28;20436;-64
2024/01/21 11:01:18;;;;;;;8.82;7.93;;;2.50;95.00;;;;;;5037521;28;20492;-64
2024/01/21 11:03:45;;;;;;;10.43;7.90;;;2.60;94.30;;;;;;5026811;28;20440;-63
2024/01/21 11:06:12;;;;;;;9.30;8.40;;;2.60;94.80;;;;;;5035756;28;20929;-63
2024/01/21 11:08:43;;;;;;;10.40;8.20;;;2.60;95.40;;;;;;5037092;28;20496;-63
2024/01/21 11:11:20;;;;;;;9.65;8.75;;;2.70;95.80;;;;;;5037840;28;20425;-64
2024/01/21 11:13:49;;;;;;;9.32;8.32;;;2.80;95.40;;;;;;5029613;28;20437;-63
2024/01/21 11:16:36;;;;;;;9.73;8.48;;;2.90;95.20;;;;;;5029229;28;20846;-63
2024/01/21 11:19:05;;;;;;;9.40;8.50;;;3.00;95.80;;;;;;5026082;28;20434;-62
2024/01/21 11:21:34;;;;;;;8.70;7.80;;;3.10;94.70;;;;;;5034296;28;20519;-63
2024/01/21 11:24:03;;;;;;;8.93;8.00;;;3.10;94.80;;;;;;5031088;28;20481;-62
2024/01/21 11:26:30;;;;;;;8.93;8.02;;;3.20;95.40;;;;;;5035069;28;20884;-63
2024/01/21 11:29:00;;;;;;;9.90;7.70;;;3.30;94.50;;;;;;5038509;28;20429;-65
2024/01/21 11:31:31;;;;;;;9.05;8.15;;;3.30;95.20;;;;;;5028277;28;20523;-63
2024/01/21 11:34:05;;;;;;;8.30;7.40;;;3.30;94.90;;;;;;5028418;28;20893;-63
2024/01/21 11:36:33;;;;;;;8.57;7.68;;;3.30;96.00;;;;;;5029152;28;20815;-63
2024/01/21 11:39:00;;;;;;;9.50;7.50;;;3.30;96.00;;;;;;5028467;28;20439;-63
2024/01/21 11:41:37;;;;;;;8.43;7.40;;;3.40;96.20;;;;;;5036230;28;20435;-63
2024/01/21 11:44:16;;;;;;;8.30;7.47;;;3.30;96.00;;;;;;5037033;28;20423;-63
2024/01/21 11:46:44;;;;;;;8.50;7.60;;;3.40;95.60;;;;;;5027180;28;20486;-62
2024/01/21 11:49:11;;;;;;;10.30;8.30;;;3.50;95.40;;;;;;5035540;28;20405;-63
2024/01/21 11:51:38;;;;;;;9.20;7.88;;;3.70;95.40;;;;;;5032541;28;20883;-63
2024/01/21 11:54:06;;;;;;;8.38;7.57;;;3.70;95.30;;;;;;5034053;28;20445;-63
2024/01/21 11:56:35;;;;;;;8.52;7.53;;;3.70;96.10;;;;;;5028358;28;20415;-63
2024/01/21 11:59:02;;;;;;;9.48;8.02;;;3.70;95.70;;;;;;5029787;28;20512;-63
2024/01/21 12:01:33;;;;;;;9.60;8.60;;;3.80;96.80;;;;;;5040135;28;20447;-63
2024/01/21 12:04:01;;;;;;;8.35;7.43;;;3.80;95.80;;;;;;5030305;28;20898;-65
2024/01/21 12:06:28;;;;;;;9.00;7.95;;;3.90;96.30;;;;;;5030114;28;20427;-65
2024/01/21 12:08:55;;;;;;;8.90;7.70;;;3.90;96.00;;;;;;5028168;28;20714;-65
2024/01/21 12:11:22;;;;;;;9.55;8.50;;;4.00;95.00;;;;;;5028341;28;20419;-68
2024/01/21 12:13:50;;;;;;;9.07;8.18;;;4.00;94.00;;;;;;5033129;28;20430;-65
2024/01/21 12:16:18;;;;;;;9.75;8.32;;;4.00;95.00;;;;;;5020474;28;20477;-65
2024/01/21 12:18:48;;;;;;;9.15;7.88;;;3.90;95.80;;;;;;5059125;22;20440;-69
2024/01/21 12:21:15;;;;;;;9.50;8.50;;;3.80;96.40;;;;;;5044396;28;20429;-73
2024/01/21 12:23:43;;;;;;;9.02;8.13;;;3.80;96.80;;;;;;5041295;28;20430;-71
2024/01/21 12:26:10;;;;;;;9.25;8.10;;;3.80;96.40;;;;;;5041630;28;20437;-71
2024/01/21 12:28:36;;;;;;;8.70;7.80;;;3.80;96.70;;;;;;5043824;28;20423;-71
2024/01/21 12:31:03;;;;;;;8.80;7.93;;;3.80;97.30;;;;;;5039347;28;20421;-71
2024/01/21 12:33:30;;;;;;;9.48;8.57;;;3.80;97.50;;;;;;5039534;28;20423;-72
2024/01/21 12:35:58;;;;;;;9.43;8.43;;;3.80;98.60;;;;;;5036241;28;20418;-72
2024/01/21 12:38:26;;;;;;;9.25;8.25;;;3.90;99.40;;;;;;5040553;28;20517;-72
2024/01/21 12:40:53;;;;;;;8.48;7.68;;;4.00;99.60;;;;;;5045555;28;20409;-71
2024/01/21 12:43:20;;;;;;;9.20;8.20;;;4.10;99.60;;;;;;5046543;28;20431;-71
2024/01/21 12:45:46;;;;;;;9.00;7.90;;;4.20;99.70;;;;;;5039547;28;20460;-71
2024/01/21 12:48:13;;;;;;;8.20;7.40;;;4.20;99.90;;;;;;5043034;28;20414;-72
2024/01/21 12:50:41;;;;;;;7.82;7.03;;;4.20;99.90;;;;;;5044283;28;20439;-72
2024/01/21 12:53:10;;;;;;;7.40;6.60;;;4.30;99.90;;;;;;5051163;28;20898;-72
2024/01/21 12:55:36;;;;;;;7.40;6.70;;;4.50;99.90;;;;;;5043995;28;20433;-73
2024/01/21 12:58:04;;;;;;;7.00;6.30;;;4.60;99.90;;;;;;5046271;28;20428;-72
2024/01/21 13:00:30;;;;;;;7.67;6.80;;;4.80;99.90;;;;;;5051815;28;20519;-72
2024/01/21 13:02:57;;;;;;;7.35;6.65;;;4.80;99.90;;;;;;5050377;28;20433;-71
2024/01/21 13:05:24;;;;;;;7.30;6.60;;;4.90;99.90;;;;;;5049387;28;20421;-71